EJU2041 EGCC-LIMC
Flight info
| Callsign | EJU2041 |
|---|---|
| Flight time | N/A |
| Altitude | 23000 |
| Route | LISTO2Y LISTO L612 HON/N0446F390 L15 BIG UL9 KONAN DCT KOK DCT CIV DCT SUTAL DCT GTQ DCT OBORN DCT DEVDI DCT BASGO/N0391F290 Z424 AKASU/N0336F190 Z424 RIXUV RIXUV3H |
| Aircraft | A20N/M-V/N |
Departure
| Time | 2026-05-07 18:27 |
|---|---|
| Airport | Manchester Airport (EGCC) |
Arrival
| Time | N/A |
|---|---|
| Airport | Milan Malpensa International Airport (LIMC) |
| Time | Latitude | Longitude | Altitude | Speed | Heading |
|---|---|---|---|---|---|
| 2026-05-07 18:02 | 53.35937 | -2.27416 | 243 ft | 0 kts | 275° |
| 2026-05-07 18:15 | 53.35937 | -2.27409 | 243 ft | 2 kts | 275° |
| 2026-05-07 18:16 | 53.35936 | -2.27402 | 244 ft | 3 kts | 275° |
| 2026-05-07 18:16 | 53.35937 | -2.27366 | 244 ft | 3 kts | 250° |
| 2026-05-07 18:16 | 53.35955 | -2.27328 | 244 ft | 3 kts | 200° |
| 2026-05-07 18:16 | 53.35971 | -2.27322 | 244 ft | 0 kts | 180° |
| 2026-05-07 18:21 | 53.35961 | -2.27322 | 244 ft | 5 kts | 180° |
| 2026-05-07 18:21 | 53.35893 | -2.27322 | 244 ft | 13 kts | 180° |
| 2026-05-07 18:21 | 53.35790 | -2.27304 | 243 ft | 16 kts | 155° |
| 2026-05-07 18:21 | 53.35746 | -2.27249 | 243 ft | 0 kts | 139° |
| 2026-05-07 18:22 | 53.35745 | -2.27235 | 243 ft | 3 kts | 94° |
| 2026-05-07 18:23 | 53.35777 | -2.27137 | 245 ft | 14 kts | 53° |
| 2026-05-07 18:23 | 53.35840 | -2.26991 | 246 ft | 16 kts | 56° |
| 2026-05-07 18:23 | 53.35904 | -2.26828 | 248 ft | 17 kts | 57° |
| 2026-05-07 18:23 | 53.35973 | -2.26670 | 251 ft | 17 kts | 49° |
| 2026-05-07 18:24 | 53.36037 | -2.26538 | 252 ft | 0 kts | 52° |
| 2026-05-07 18:24 | 53.36041 | -2.26529 | 252 ft | 2 kts | 52° |
| 2026-05-07 18:24 | 53.36056 | -2.26496 | 253 ft | 6 kts | 52° |
| 2026-05-07 18:24 | 53.36091 | -2.26421 | 254 ft | 11 kts | 52° |
| 2026-05-07 18:25 | 53.36153 | -2.26293 | 255 ft | 17 kts | 41° |
| 2026-05-07 18:25 | 53.36246 | -2.26151 | 257 ft | 18 kts | 52° |
| 2026-05-07 18:25 | 53.36272 | -2.25976 | 259 ft | 14 kts | 80° |
| 2026-05-07 18:25 | 53.36284 | -2.25814 | 261 ft | 14 kts | 100° |
| 2026-05-07 18:26 | 53.36219 | -2.25755 | 261 ft | 10 kts | 197° |
| 2026-05-07 18:26 | 53.36156 | -2.25871 | 259 ft | 25 kts | 230° |
| 2026-05-07 18:26 | 53.35895 | -2.26412 | 253 ft | 92 kts | 232° |
| 2026-05-07 18:26 | 53.35366 | -2.27505 | 240 ft | 145 kts | 231° |
| 2026-05-07 18:27 | 53.34668 | -2.28906 | 571 ft | 159 kts | 228° |
| 2026-05-07 18:27 | 53.33976 | -2.30339 | 1224 ft | 157 kts | 229° |
| 2026-05-07 18:27 | 53.33311 | -2.31772 | 1922 ft | 155 kts | 229° |
| 2026-05-07 18:27 | 53.32623 | -2.33244 | 2391 ft | 169 kts | 229° |
| 2026-05-07 18:28 | 53.32119 | -2.35145 | 2784 ft | 193 kts | 258° |
| 2026-05-07 18:28 | 53.32088 | -2.37496 | 3220 ft | 217 kts | 270° |
| 2026-05-07 18:28 | 53.32222 | -2.40130 | 3712 ft | 236 kts | 268° |
| 2026-05-07 18:28 | 53.31871 | -2.42828 | 4401 ft | 242 kts | 239° |
| 2026-05-07 18:29 | 53.30754 | -2.44956 | 4851 ft | 253 kts | 213° |
| 2026-05-07 18:29 | 53.29112 | -2.45956 | 5220 ft | 255 kts | 185° |
| 2026-05-07 18:29 | 53.27352 | -2.45557 | 6134 ft | 258 kts | 162° |
| 2026-05-07 18:29 | 53.25719 | -2.44245 | 7086 ft | 264 kts | 150° |
| 2026-05-07 18:30 | 53.24161 | -2.42568 | 7959 ft | 269 kts | 151° |
| 2026-05-07 18:30 | 53.22544 | -2.40971 | 8840 ft | 273 kts | 153° |